Time;durP1;ratioP1;P1;durP2;ratioP2;P2;SDS_P1;SDS_P2;PMS_P1;PMS_P2;Temp;Humidity;BMP_temperature;BMP_pressure;BME280_temperature;BME280_humidity;BME280_pressure;Samples;Min_cycle;Max_cycle;Signal;HPM_P1;HPM_P2
2022/11/24 00:01:41;;;;;;;10.97;3.20;;;8.70;51.70;;;;;;5015579;28;20178;-71
2022/11/24 00:04:06;;;;;;;14.20;3.70;;;8.70;51.90;;;;;;5008303;28;20216;-71
2022/11/24 00:06:34;;;;;;;10.07;2.90;;;8.70;55.40;;;;;;5027759;28;20177;-71
2022/11/24 00:09:02;;;;;;;10.60;4.30;;;8.60;54.50;;;;;;5001694;28;20178;-71
2022/11/24 00:11:31;;;;;;;13.63;4.40;;;8.60;55.50;;;;;;5009995;28;20440;-71
2022/11/24 00:13:57;;;;;;;12.83;3.63;;;8.60;52.70;;;;;;5019641;28;20499;-69
2022/11/24 00:16:30;;;;;;;10.53;3.40;;;8.60;55.90;;;;;;5013253;28;20502;-69
2022/11/24 00:18:58;;;;;;;11.10;2.90;;;8.60;54.60;;;;;;5012571;28;20910;-70
2022/11/24 00:21:25;;;;;;;12.97;2.67;;;8.50;55.30;;;;;;5012022;28;20915;-71
2022/11/24 00:23:51;;;;;;;11.17;3.53;;;8.50;50.60;;;;;;5011517;28;20457;-71
2022/11/24 00:26:22;;;;;;;17.93;4.20;;;8.50;52.80;;;;;;5009654;28;20441;-68
2022/11/24 00:28:49;;;;;;;10.33;2.90;;;8.40;54.60;;;;;;5022287;28;20469;-71
2022/11/24 00:31:26;;;;;;;16.20;3.57;;;8.40;53.90;;;;;;5010217;28;20453;-71
2022/11/24 00:33:54;;;;;;;12.53;3.43;;;8.30;53.50;;;;;;5012279;28;20904;-71
2022/11/24 00:36:22;;;;;;;10.60;3.50;;;8.30;56.90;;;;;;5019948;28;20437;-71
2022/11/24 00:38:52;;;;;;;11.90;3.30;;;8.30;56.70;;;;;;5002818;28;20521;-71
2022/11/24 00:41:17;;;;;;;13.40;3.60;;;8.20;59.80;;;;;;5011941;28;20441;-72
2022/11/24 00:43:43;;;;;;;17.60;3.20;;;8.20;57.60;;;;;;5012168;28;20479;-71
2022/11/24 00:46:08;;;;;;;15.47;3.93;;;8.10;56.70;;;;;;5020019;28;20271;-71
2022/11/24 00:48:34;;;;;;;11.17;3.40;;;8.10;59.80;;;;;;5018721;28;20214;-71
2022/11/24 00:51:03;;;;;;;13.20;3.33;;;8.10;58.80;;;;;;5007838;28;20190;-69
2022/11/24 00:53:29;;;;;;;16.37;2.90;;;8.20;59.60;;;;;;5018198;28;20201;-71
2022/11/24 00:55:55;;;;;;;12.00;3.10;;;8.20;58.70;;;;;;5013593;28;20866;-71
2022/11/24 00:58:22;;;;;;;9.30;3.63;;;8.20;56.70;;;;;;5008730;28;20187;-71
2022/11/24 01:00:47;;;;;;;12.90;4.20;;;8.20;58.00;;;;;;5012861;28;20194;-71
2022/11/24 01:03:14;;;;;;;10.70;3.47;;;8.10;54.80;;;;;;5006063;28;20456;-71
2022/11/24 01:05:39;;;;;;;9.53;3.10;;;8.20;57.60;;;;;;5019711;28;20978;-71
2022/11/24 01:08:05;;;;;;;9.33;2.93;;;8.20;57.80;;;;;;5010880;28;20443;-71
2022/11/24 01:10:31;;;;;;;8.30;2.80;;;8.20;57.30;;;;;;5013701;28;20182;-71
2022/11/24 01:12:57;;;;;;;10.47;3.00;;;8.30;54.30;;;;;;5012336;28;20203;-71
2022/11/24 01:15:22;;;;;;;11.00;2.77;;;8.30;52.50;;;;;;5016093;28;20301;-71
2022/11/24 01:17:48;;;;;;;7.50;3.20;;;8.30;52.40;;;;;;4994338;28;20186;-71
2022/11/24 01:20:13;;;;;;;9.20;3.27;;;8.30;51.00;;;;;;5008360;28;20182;-71
2022/11/24 01:22:41;;;;;;;12.00;4.00;;;8.40;50.10;;;;;;5010702;28;20295;-71
2022/11/24 01:25:07;;;;;;;6.67;2.47;;;8.40;50.20;;;;;;5008944;28;20202;-71
2022/11/24 01:27:33;;;;;;;12.80;3.07;;;8.40;50.50;;;;;;5003786;28;20441;-72
2022/11/24 01:29:58;;;;;;;10.83;2.70;;;8.50;48.40;;;;;;5014151;28;20504;-72
2022/11/24 01:32:24;;;;;;;12.60;2.60;;;8.50;47.00;;;;;;5013710;28;20242;-70
2022/11/24 01:34:49;;;;;;;8.73;2.27;;;8.60;38.00;;;;;;5007743;28;20214;-71
2022/11/24 01:37:15;;;;;;;13.23;2.80;;;8.60;37.90;;;;;;4993724;28;20263;-71
2022/11/24 01:39:40;;;;;;;9.50;2.47;;;8.70;37.90;;;;;;5000184;28;20573;-71
2022/11/24 01:42:06;;;;;;;8.67;3.30;;;8.80;37.90;;;;;;5010551;28;20203;-71
2022/11/24 01:44:32;;;;;;;10.17;2.60;;;8.90;38.00;;;;;;5018510;28;20214;-71
2022/11/24 01:46:59;;;;;;;8.23;2.90;;;8.90;38.00;;;;;;5011426;28;20258;-71
2022/11/24 01:49:43;;;;;;;10.17;4.20;;;9.00;38.20;;;;;;5014983;28;20179;-71
2022/11/24 01:52:14;;;;;;;10.47;2.93;;;9.00;40.60;;;;;;5003767;28;20493;-71
2022/11/24 01:54:44;;;;;;;12.17;3.40;;;9.00;38.00;;;;;;5008185;28;20986;-72
2022/11/24 01:57:16;;;;;;;12.73;2.83;;;9.10;38.00;;;;;;5020592;28;20441;-71
2022/11/24 01:59:45;;;;;;;8.40;3.20;;;9.10;28.60;;;;;;5005459;28;20512;-71
2022/11/24 02:02:11;;;;;;;8.73;2.97;;;9.10;31.50;;;;;;5019932;28;20438;-71
2022/11/24 02:04:37;;;;;;;14.60;3.27;;;9.20;26.60;;;;;;5020919;28;20476;-71
2022/11/24 02:07:04;;;;;;;9.17;3.20;;;9.20;24.30;;;;;;5009031;28;20444;-71
2022/11/24 02:09:43;;;;;;;13.93;3.50;;;9.30;24.00;;;;;;5001506;28;20846;-72
2022/11/24 02:12:09;;;;;;;13.20;3.40;;;9.10;21.10;;;;;;4998375;28;20449;-71
2022/11/24 02:14:37;;;;;;;10.40;3.23;;;9.30;23.20;;;;;;5012360;28;20450;-71
2022/11/24 02:17:02;;;;;;;13.40;3.03;;;9.30;21.00;;;;;;5007034;28;20502;-71
2022/11/24 02:19:39;;;;;;;8.63;3.07;;;9.30;20.20;;;;;;5002821;28;20873;-71
2022/11/24 02:22:26;;;;;;;9.73;2.77;;;9.30;16.00;;;;;;5016188;28;20266;-71
2022/11/24 02:25:15;;;;;;;9.00;2.70;;;9.30;14.70;;;;;;5011601;28;20468;-71
2022/11/24 02:27:43;;;;;;;7.50;2.80;;;9.30;15.00;;;;;;5009441;28;20835;-71
2022/11/24 02:30:09;;;;;;;12.20;2.67;;;9.30;15.10;;;;;;5005690;28;20437;-71
2022/11/24 02:32:39;;;;;;;13.90;3.77;;;9.30;13.20;;;;;;4993443;28;20418;-70
2022/11/24 02:35:06;;;;;;;10.83;2.67;;;9.30;12.20;;;;;;5015153;28;20238;-72
2022/11/24 02:37:31;;;;;;;9.90;3.10;;;9.30;13.10;;;;;;5013106;28;20432;-71
2022/11/24 02:39:57;;;;;;;9.70;2.70;;;9.30;11.20;;;;;;5007359;28;20428;-71
2022/11/24 02:42:25;;;;;;;7.10;2.53;;;9.30;9.60;;;;;;5003539;28;20198;-71
2022/11/24 02:44:54;;;;;;;7.03;2.67;;;9.30;9.90;;;;;;4992467;28;20291;-71
2022/11/24 02:47:20;;;;;;;12.20;2.90;;;9.30;9.90;;;;;;5004161;28;20437;-71
2022/11/24 02:49:45;;;;;;;10.00;3.90;;;9.30;11.60;;;;;;4999947;28;20422;-71
2022/11/24 02:52:10;;;;;;;14.03;2.63;;;9.30;10.20;;;;;;4999970;28;20187;-71
2022/11/24 02:54:36;;;;;;;12.63;2.87;;;9.30;10.00;;;;;;5009278;28;20669;-71
2022/11/24 02:57:02;;;;;;;11.63;2.50;;;9.30;11.00;;;;;;5012402;28;20501;-71
2022/11/24 02:59:27;;;;;;;13.03;2.83;;;9.30;10.10;;;;;;5003157;28;20206;-71
2022/11/24 03:01:52;;;;;;;11.90;3.00;;;9.40;10.40;;;;;;4998492;28;20656;-71
2022/11/24 03:04:18;;;;;;;9.63;2.77;;;9.40;9.70;;;;;;5016892;28;20225;-71
2022/11/24 03:06:43;;;;;;;10.93;2.70;;;9.30;9.60;;;;;;5011124;28;20178;-71
2022/11/24 03:09:10;;;;;;;10.33;3.77;;;9.40;12.10;;;;;;4992877;28;20183;-71
2022/11/24 03:11:36;;;;;;;18.10;3.43;;;9.40;9.90;;;;;;5013298;28;20181;-70
2022/11/24 03:14:02;;;;;;;14.17;3.10;;;9.40;7.70;;;;;;5008113;28;20460;-71
2022/11/24 03:16:28;;;;;;;12.57;3.00;;;9.40;7.30;;;;;;5014585;28;20882;-70
2022/11/24 03:18:53;;;;;;;8.03;2.87;;;9.40;7.20;;;;;;5007854;28;20297;-70
2022/11/24 03:21:19;;;;;;;13.53;2.57;;;9.40;4.90;;;;;;5010800;28;20546;-71
2022/11/24 03:23:45;;;;;;;9.23;2.63;;;9.50;5.50;;;;;;5009943;28;20198;-71
2022/11/24 03:26:13;;;;;;;6.40;2.77;;;9.40;4.40;;;;;;5012587;28;20218;-71
2022/11/24 03:28:39;;;;;;;12.03;2.87;;;9.50;4.30;;;;;;5008624;28;20186;-71
2022/11/24 03:31:05;;;;;;;10.53;2.80;;;9.50;6.20;;;;;;5007286;28;20438;-70
2022/11/24 03:33:31;;;;;;;8.87;2.70;;;9.60;5.70;;;;;;4996737;28;20264;-71
2022/11/24 03:35:56;;;;;;;17.43;3.47;;;9.60;1.70;;;;;;5014868;28;20445;-70
2022/11/24 03:38:22;;;;;;;9.53;2.57;;;9.70;1.60;;;;;;5006805;28;20194;-71
2022/11/24 03:40:47;;;;;;;9.70;3.10;;;9.70;1.00;;;;;;5014838;28;20178;-71
2022/11/24 03:43:13;;;;;;;10.63;2.50;;;9.80;1.00;;;;;;5014428;28;20193;-71
2022/11/24 03:45:39;;;;;;;11.23;2.60;;;9.80;1.00;;;;;;5000476;28;20299;-70
2022/11/24 03:48:06;;;;;;;17.20;3.10;;;9.90;1.00;;;;;;5002926;28;20175;-72
2022/11/24 03:50:31;;;;;;;7.03;2.50;;;9.90;1.00;;;;;;5012153;28;20236;-71
2022/11/24 03:52:57;;;;;;;13.30;3.30;;;9.90;1.00;;;;;;5009161;28;21079;-72
2022/11/24 03:55:22;;;;;;;12.30;2.70;;;9.90;1.00;;;;;;4994538;28;20282;-71
2022/11/24 03:57:48;;;;;;;11.90;2.33;;;9.90;1.00;;;;;;5008165;28;20179;-71
2022/11/24 04:00:14;;;;;;;16.10;2.70;;;9.90;1.00;;;;;;5000690;28;20270;-69
2022/11/24 04:02:40;;;;;;;10.00;2.73;;;9.80;1.00;;;;;;5007239;28;20236;-71
2022/11/24 04:05:06;;;;;;;14.07;3.03;;;9.80;1.00;;;;;;5008130;28;20839;-71
2022/11/24 04:07:31;;;;;;;13.53;2.73;;;9.90;1.00;;;;;;5012188;28;20214;-71
2022/11/24 04:09:57;;;;;;;11.63;2.87;;;9.80;1.00;;;;;;5006994;28;20492;-70
2022/11/24 04:15:07;;;;;;;9.40;3.07;;;9.90;1.00;;;;;;5001651;28;20267;-71
2022/11/24 04:17:33;;;;;;;12.20;2.67;;;9.90;1.00;;;;;;5010774;28;20452;-71
2022/11/24 04:19:58;;;;;;;12.30;3.03;;;9.90;1.00;;;;;;5012241;28;20673;-71
2022/11/24 04:22:24;;;;;;;10.57;3.00;;;9.90;1.00;;;;;;5013971;28;20236;-71
2022/11/24 04:24:49;;;;;;;17.77;2.80;;;9.90;1.00;;;;;;4997031;28;20236;-70
2022/11/24 04:27:15;;;;;;;8.03;2.50;;;9.90;1.00;;;;;;5006344;28;20216;-71
2022/11/24 04:29:40;;;;;;;12.83;3.00;;;10.00;1.00;;;;;;5000028;28;20175;-71
2022/11/24 04:32:07;;;;;;;13.57;2.70;;;10.00;1.00;;;;;;5006770;28;20691;-71
2022/11/24 04:34:33;;;;;;;15.10;2.70;;;10.00;1.00;;;;;;5017608;28;20217;-69
2022/11/24 04:36:59;;;;;;;9.73;3.03;;;10.00;1.00;;;;;;5004527;28;20422;-71
2022/11/24 04:39:24;;;;;;;11.20;3.13;;;10.00;1.00;;;;;;5012225;28;20744;-71
2022/11/24 04:41:50;;;;;;;9.87;3.10;;;10.00;1.00;;;;;;4996301;28;20187;-71
2022/11/24 04:44:15;;;;;;;9.43;2.50;;;10.00;1.00;;;;;;5006862;28;20317;-71
2022/11/24 04:46:41;;;;;;;17.47;2.50;;;10.00;1.00;;;;;;5011510;28;20174;-71
2022/11/24 04:49:10;;;;;;;11.13;2.80;;;10.00;1.00;;;;;;5018929;28;20205;-71
2022/11/24 04:51:37;;;;;;;7.60;2.33;;;10.00;1.00;;;;;;5010556;28;20633;-71
2022/11/24 04:54:02;;;;;;;9.90;2.77;;;10.00;1.00;;;;;;5019685;28;20429;-71
2022/11/24 04:56:28;;;;;;;8.10;2.30;;;10.00;1.00;;;;;;5012068;28;20592;-71
2022/11/24 04:58:53;;;;;;;10.10;2.60;;;10.00;1.00;;;;;;5016263;28;20193;-70
2022/11/24 05:01:19;;;;;;;8.30;2.57;;;10.00;1.00;;;;;;5005135;28;20238;-72
2022/11/24 05:03:44;;;;;;;11.93;2.50;;;10.10;1.00;;;;;;5018721;28;20201;-70
2022/11/24 05:06:10;;;;;;;8.77;2.73;;;10.10;1.00;;;;;;5014230;28;20206;-71
2022/11/24 05:08:35;;;;;;;9.13;2.73;;;10.00;1.00;;;;;;4995966;28;20171;-71
2022/11/24 05:11:07;;;;;;;8.47;2.13;;;10.30;1.00;;;;;;5006859;28;20533;-68
2022/11/24 05:13:32;;;;;;;10.37;3.03;;;10.10;1.00;;;;;;5019107;28;20201;-71
2022/11/24 05:15:59;;;;;;;10.17;2.70;;;10.10;1.00;;;;;;5015462;28;21018;-71
2022/11/24 05:18:24;;;;;;;12.40;2.83;;;10.10;1.00;;;;;;5008943;28;20186;-71
2022/11/24 05:20:50;;;;;;;12.43;3.10;;;10.10;1.00;;;;;;5010840;28;20425;-71
2022/11/24 05:23:15;;;;;;;11.07;3.20;;;10.20;1.00;;;;;;5010166;28;20316;-71
2022/11/24 05:25:41;;;;;;;14.27;2.87;;;10.20;1.00;;;;;;5009420;28;20549;-71
2022/11/24 05:28:08;;;;;;;10.47;2.97;;;10.10;1.00;;;;;;4997191;28;20237;-71
2022/11/24 05:30:38;;;;;;;16.00;2.80;;;9.90;1.00;;;;;;5015223;28;20440;-71
2022/11/24 05:33:06;;;;;;;11.00;2.40;;;10.20;1.00;;;;;;4995971;28;20428;-70
2022/11/24 05:35:32;;;;;;;13.77;2.90;;;10.10;1.00;;;;;;5015629;28;20465;-71
2022/11/24 05:37:57;;;;;;;13.60;2.70;;;10.10;1.00;;;;;;5000124;28;20419;-71
2022/11/24 05:40:24;;;;;;;8.93;2.77;;;10.10;1.00;;;;;;4998278;28;21005;-71
2022/11/24 05:42:49;;;;;;;9.93;3.03;;;10.10;1.00;;;;;;5008634;28;20254;-71
2022/11/24 05:45:18;;;;;;;13.00;2.80;;;10.10;1.00;;;;;;5002991;28;20560;-71
2022/11/24 05:47:44;;;;;;;8.53;3.00;;;10.10;1.00;;;;;;5011308;28;20556;-70
2022/11/24 05:50:12;;;;;;;14.00;2.97;;;10.10;1.00;;;;;;5005067;28;20421;-72
2022/11/24 05:52:38;;;;;;;11.87;3.50;;;10.10;1.00;;;;;;5010348;28;20441;-70
2022/11/24 05:55:05;;;;;;;8.70;2.23;;;10.10;1.00;;;;;;5012084;28;20477;-70
2022/11/24 05:57:31;;;;;;;15.17;2.80;;;10.10;1.00;;;;;;5013846;28;20532;-70
2022/11/24 05:59:57;;;;;;;12.80;2.90;;;10.10;1.00;;;;;;5015644;28;20512;-71
2022/11/24 06:02:22;;;;;;;9.20;3.33;;;10.10;1.00;;;;;;5008587;28;20556;-71
2022/11/24 06:04:48;;;;;;;13.03;3.50;;;10.10;1.00;;;;;;5011225;28;20202;-71
2022/11/24 06:07:14;;;;;;;11.93;3.03;;;10.10;1.00;;;;;;5003866;28;20172;-71
2022/11/24 06:09:40;;;;;;;11.30;2.73;;;10.10;1.00;;;;;;5004877;28;20181;-71
2022/11/24 06:12:07;;;;;;;11.07;2.87;;;10.10;1.00;;;;;;4999075;28;20418;-71
2022/11/24 06:14:33;;;;;;;11.07;3.17;;;10.10;1.00;;;;;;5000722;28;20476;-71
2022/11/24 06:16:59;;;;;;;11.43;2.77;;;10.10;1.00;;;;;;5020727;28;20429;-71
2022/11/24 06:19:24;;;;;;;13.80;2.73;;;10.10;1.00;;;;;;5012508;28;20432;-70
2022/11/24 06:21:50;;;;;;;10.60;3.13;;;10.10;1.00;;;;;;5009361;28;20626;-71
2022/11/24 06:24:15;;;;;;;7.90;2.60;;;9.90;1.00;;;;;;4993429;28;20203;-72
2022/11/24 06:26:41;;;;;;;10.40;3.80;;;9.70;1.00;;;;;;4999554;28;20570;-71
2022/11/24 06:29:07;;;;;;;13.10;2.80;;;9.50;5.00;;;;;;5009607;28;20197;-71
2022/11/24 06:31:32;;;;;;;11.57;2.80;;;9.30;11.30;;;;;;5015060;28;20636;-71
2022/11/24 06:33:58;;;;;;;14.03;3.47;;;9.30;15.80;;;;;;5011804;28;20206;-70
2022/11/24 06:36:24;;;;;;;10.87;2.70;;;9.20;19.70;;;;;;5008465;28;20558;-71
2022/11/24 06:38:50;;;;;;;14.73;2.40;;;9.20;21.80;;;;;;5004782;28;20429;-71
2022/11/24 06:41:16;;;;;;;13.43;2.80;;;9.20;22.00;;;;;;5011720;28;20257;-71
2022/11/24 06:43:42;;;;;;;19.53;4.43;;;9.10;26.20;;;;;;5006720;28;20197;-71
2022/11/24 06:46:09;;;;;;;12.87;3.23;;;9.20;27.80;;;;;;4997595;28;20423;-71
2022/11/24 06:48:34;;;;;;;11.53;3.00;;;9.10;32.30;;;;;;5007993;28;20175;-72
2022/11/24 06:51:02;;;;;;;16.90;3.00;;;9.10;38.10;;;;;;5007447;28;20433;-69
2022/11/24 06:53:38;;;;;;;14.07;3.03;;;9.10;36.00;;;;;;5016069;28;20182;-71
2022/11/24 06:56:05;;;;;;;9.20;2.50;;;9.10;38.20;;;;;;5011347;28;20441;-71
2022/11/24 06:58:31;;;;;;;14.03;2.90;;;9.00;40.60;;;;;;5011106;28;20940;-71
2022/11/24 07:00:56;;;;;;;11.33;3.20;;;9.10;38.10;;;;;;5000612;28;20430;-71
2022/11/24 07:03:22;;;;;;;12.53;2.50;;;9.10;36.00;;;;;;5002317;28;20185;-71
2022/11/24 07:05:47;;;;;;;10.77;3.00;;;9.10;38.30;;;;;;5008701;28;20202;-71
2022/11/24 07:08:13;;;;;;;13.47;3.70;;;9.00;38.10;;;;;;5013729;28;20264;-71
2022/11/24 07:10:39;;;;;;;9.80;2.55;;;9.00;38.10;;;;;;5019456;28;20512;-73
2022/11/24 07:13:08;;;;;;;14.77;2.63;;;9.00;38.10;;;;;;5003860;28;20549;-73
2022/11/24 07:15:33;;;;;;;10.50;3.03;;;9.40;55.50;;;;;;5006697;28;20194;-73
2022/11/24 07:17:59;;;;;;;17.80;3.27;;;9.50;45.00;;;;;;5002925;28;20487;-74
2022/11/24 07:20:25;;;;;;;13.43;2.80;;;9.80;38.70;;;;;;5016891;28;20183;-72
2022/11/24 07:22:55;;;;;;;14.40;3.30;;;9.80;27.10;;;;;;4993310;28;20213;-71
2022/11/24 07:25:20;;;;;;;13.63;3.47;;;9.40;29.50;;;;;;5011104;28;20205;-71
2022/11/24 07:27:46;;;;;;;21.50;3.97;;;9.40;38.20;;;;;;5008141;28;20437;-72
2022/11/24 07:30:12;;;;;;;11.17;2.97;;;9.20;38.40;;;;;;5006817;28;20269;-72
2022/11/24 07:32:37;;;;;;;18.83;3.40;;;9.20;38.40;;;;;;5004028;28;20178;-72
2022/11/24 07:35:03;;;;;;;19.23;4.23;;;9.10;38.20;;;;;;5006065;28;20399;-72
2022/11/24 07:37:29;;;;;;;13.67;3.43;;;9.10;38.40;;;;;;5011364;28;20209;-72
2022/11/24 07:39:55;;;;;;;14.30;3.50;;;9.10;38.30;;;;;;5002266;28;20183;-71
2022/11/24 07:42:20;;;;;;;13.20;3.67;;;9.20;38.50;;;;;;5012382;28;20445;-72
2022/11/24 07:44:46;;;;;;;11.63;3.20;;;9.20;36.00;;;;;;5015513;28;20568;-72
2022/11/24 07:47:11;;;;;;;23.63;3.10;;;9.20;38.40;;;;;;5008612;28;20557;-72
2022/11/24 07:49:37;;;;;;;19.33;3.30;;;9.20;38.30;;;;;;4979909;28;20182;-71
2022/11/24 07:52:03;;;;;;;14.27;3.10;;;9.20;38.40;;;;;;5003600;28;20236;-69
2022/11/24 07:54:29;;;;;;;21.80;3.30;;;9.20;36.00;;;;;;5002932;28;21712;-70
2022/11/24 07:56:56;;;;;;;16.53;3.17;;;9.20;38.30;;;;;;5009045;28;20465;-71
2022/11/24 07:59:21;;;;;;;14.10;2.90;;;9.20;38.30;;;;;;5004844;28;20972;-70
2022/11/24 08:01:47;;;;;;;14.50;3.07;;;9.20;38.20;;;;;;5005877;28;20277;-72
2022/11/24 08:04:12;;;;;;;18.63;5.87;;;9.20;36.10;;;;;;5009600;28;20305;-71
2022/11/24 08:06:38;;;;;;;16.17;3.90;;;9.20;38.50;;;;;;5011041;28;20181;-71
2022/11/24 08:09:03;;;;;;;9.37;3.00;;;9.30;38.40;;;;;;5016988;28;20200;-72
2022/11/24 08:11:30;;;;;;;8.83;3.10;;;9.30;38.30;;;;;;5008325;28;20553;-70
2022/11/24 08:13:56;;;;;;;12.17;2.63;;;9.20;38.20;;;;;;5000191;28;20249;-69
2022/11/24 08:16:21;;;;;;;15.00;2.93;;;9.20;38.20;;;;;;5003607;28;20433;-71
2022/11/24 08:18:51;;;;;;;9.40;2.90;;;9.20;38.40;;;;;;5008846;28;20174;-72
2022/11/24 08:21:18;;;;;;;10.77;2.73;;;9.20;38.10;;;;;;5017689;28;20174;-70
2022/11/24 08:23:43;;;;;;;12.33;2.47;;;9.20;36.00;;;;;;5014237;28;20491;-71
2022/11/24 08:26:16;;;;;;;6.80;2.80;;;9.20;33.30;;;;;;5003776;28;20888;-72
2022/11/24 08:28:42;;;;;;;5.93;2.83;;;9.30;31.40;;;;;;5006804;28;20649;-70
2022/11/24 08:31:11;;;;;;;10.53;3.00;;;9.40;30.10;;;;;;5002796;28;20445;-70
2022/11/24 08:33:37;;;;;;;7.83;2.33;;;9.40;23.50;;;;;;5017459;28;20510;-70
2022/11/24 08:36:05;;;;;;;10.90;2.50;;;9.40;24.50;;;;;;5009378;28;20506;-72
2022/11/24 08:38:30;;;;;;;8.20;2.13;;;9.40;27.80;;;;;;5003415;28;20965;-71
2022/11/24 08:41:04;;;;;;;8.53;2.03;;;9.40;24.10;;;;;;5013137;28;20437;-71
2022/11/24 08:43:30;;;;;;;8.73;2.03;;;9.50;22.40;;;;;;5015300;28;20202;-71
2022/11/24 08:45:59;;;;;;;8.30;2.17;;;9.50;25.80;;;;;;5008045;28;20555;-71
2022/11/24 08:48:25;;;;;;;8.83;2.53;;;9.70;22.60;;;;;;5013618;28;20224;-71
2022/11/24 08:50:50;;;;;;;7.67;2.93;;;9.90;19.20;;;;;;5017387;28;20440;-71
2022/11/24 08:53:16;;;;;;;7.20;2.07;;;10.10;10.90;;;;;;5013499;28;20225;-72
2022/11/24 08:55:41;;;;;;;7.00;2.50;;;10.10;9.70;;;;;;5018785;28;20178;-71
2022/11/24 08:58:07;;;;;;;7.27;2.30;;;10.10;9.20;;;;;;5021335;28;20625;-71
2022/11/24 09:00:32;;;;;;;2.40;1.57;;;10.10;10.60;;;;;;5006135;28;20690;-71
2022/11/24 09:02:58;;;;;;;9.07;1.70;;;10.30;7.50;;;;;;5007299;28;20594;-72
2022/11/24 09:05:24;;;;;;;5.40;2.17;;;10.40;1.00;;;;;;5020697;28;20627;-69
2022/11/24 09:07:50;;;;;;;8.13;2.50;;;11.00;1.00;;;;;;5012720;28;20163;-68
2022/11/24 09:10:15;;;;;;;5.07;2.10;;;11.80;1.00;;;;;;5012539;28;20996;-69
2022/11/24 09:12:44;;;;;;;3.30;1.60;;;12.20;1.00;;;;;;5012205;28;20171;-68
2022/11/24 09:15:09;;;;;;;3.83;1.47;;;12.20;1.00;;;;;;5009328;28;20217;-70
2022/11/24 09:17:35;;;;;;;6.47;2.30;;;13.10;1.00;;;;;;5013126;28;20409;-71
2022/11/24 09:20:01;;;;;;;6.40;2.00;;;12.90;1.00;;;;;;5018864;28;20211;-71
2022/11/24 09:22:28;;;;;;;6.17;2.10;;;12.30;1.00;;;;;;5011872;28;20183;-71
2022/11/24 09:24:54;;;;;;;7.17;1.90;;;11.80;1.00;;;;;;5016424;28;20495;-70
2022/11/24 09:27:19;;;;;;;5.20;1.57;;;11.60;1.00;;;;;;5018409;28;20440;-71
2022/11/24 09:29:45;;;;;;;8.00;2.00;;;11.50;1.00;;;;;;5005504;28;20259;-70
2022/11/24 09:32:10;;;;;;;5.60;1.80;;;11.60;1.00;;;;;;5006941;28;20186;-70
2022/11/24 09:34:36;;;;;;;6.63;2.33;;;11.70;1.00;;;;;;5017732;28;20241;-70
2022/11/24 09:37:01;;;;;;;5.10;1.87;;;11.40;1.00;;;;;;5006888;28;20207;-70
2022/11/24 09:39:27;;;;;;;4.80;1.47;;;11.40;1.00;;;;;;5007307;28;20209;-69
2022/11/24 09:42:22;;;;;;;3.27;1.43;;;11.30;1.00;;;;;;5015526;28;20182;-72
2022/11/24 09:45:05;;;;;;;3.30;1.80;;;11.60;1.00;;;;;;5002200;28;20222;-70
2022/11/24 09:47:52;;;;;;;8.07;2.20;;;11.80;1.00;;;;;;5014295;28;20428;-70
2022/11/24 09:50:20;;;;;;;3.53;1.30;;;11.90;1.00;;;;;;5015320;28;20636;-69
2022/11/24 09:53:11;;;;;;;3.00;1.47;;;12.00;1.00;;;;;;5015999;28;20440;-70
2022/11/24 09:55:41;;;;;;;3.73;1.50;;;12.00;1.00;;;;;;5005331;28;20447;-70
2022/11/24 09:58:12;;;;;;;3.07;1.40;;;12.00;1.00;;;;;;5000043;28;20456;-69
2022/11/24 10:00:38;;;;;;;4.30;1.60;;;12.00;1.00;;;;;;5000811;28;20425;-69
2022/11/24 10:03:05;;;;;;;4.90;1.47;;;12.20;1.00;;;;;;5004523;28;20903;-71
2022/11/24 10:05:34;;;;;;;4.57;1.40;;;12.70;1.00;;;;;;5014739;28;20457;-70
2022/11/24 10:08:26;;;;;;;7.43;1.77;;;13.80;1.00;;;;;;5010867;28;20773;-71
2022/11/24 10:10:58;;;;;;;8.30;1.77;;;14.00;1.00;;;;;;5019336;28;20433;-69
2022/11/24 10:13:30;;;;;;;5.73;1.70;;;13.10;1.00;;;;;;5014699;28;20436;-69
2022/11/24 10:16:14;;;;;;;3.57;1.43;;;13.00;1.00;;;;;;5011127;28;20468;-68
2022/11/24 10:18:44;;;;;;;4.30;1.53;;;12.60;1.00;;;;;;5010236;28;20799;-70
2022/11/24 10:21:49;;;;;;;4.37;1.80;;;12.30;1.00;;;;;;5020952;28;20440;-70
2022/11/24 10:24:37;;;;;;;3.63;1.33;;;12.00;1.00;;;;;;4999214;28;20457;-70
2022/11/24 10:27:14;;;;;;;4.23;1.70;;;11.90;1.00;;;;;;5015296;28;20425;-70
2022/11/24 10:29:41;;;;;;;5.83;1.83;;;11.80;1.00;;;;;;4993656;28;20924;-70
2022/11/24 10:32:18;;;;;;;5.13;1.57;;;11.90;1.00;;;;;;5002303;28;20498;-70
2022/11/24 10:34:48;;;;;;;5.43;2.00;;;12.30;1.00;;;;;;5005188;28;20556;-70
2022/11/24 10:37:26;;;;;;;3.57;1.60;;;12.50;1.00;;;;;;5010740;28;20447;-70
2022/11/24 10:40:10;;;;;;;6.50;1.67;;;13.60;1.00;;;;;;5016496;28;21104;-72
2022/11/24 10:42:36;;;;;;;4.77;1.67;;;16.40;1.00;;;;;;5012191;28;20952;-71
2022/11/24 10:45:13;;;;;;;4.90;1.80;;;18.80;1.00;;;;;;5006214;28;20476;-71
2022/11/24 10:47:40;;;;;;;4.80;2.37;;;20.70;1.00;;;;;;5002074;28;20211;-71
2022/11/24 10:50:25;;;;;;;5.50;1.70;;;22.50;1.00;;;;;;5003779;28;20428;-70
2022/11/24 10:53:02;;;;;;;5.30;2.10;;;22.20;1.00;;;;;;5006174;28;20784;-69
2022/11/24 10:55:57;;;;;;;6.80;2.23;;;20.40;1.00;;;;;;4995563;28;20486;-70
2022/11/24 10:58:27;;;;;;;6.20;2.00;;;17.60;1.00;;;;;;4999513;28;20411;-68
2022/11/24 11:00:53;;;;;;;6.23;1.90;;;16.90;1.00;;;;;;5018423;22;20492;-66
2022/11/24 11:03:24;;;;;;;5.40;1.90;;;16.40;1.00;;;;;;5023990;28;20535;-73
2022/11/24 11:06:10;;;;;;;5.00;2.00;;;15.70;1.00;;;;;;5028499;28;20469;-73
2022/11/24 11:08:36;;;;;;;4.57;1.53;;;15.00;1.00;;;;;;5028394;28;20490;-72
2022/11/24 11:11:17;;;;;;;7.27;1.90;;;14.60;1.00;;;;;;5019282;28;20457;-72
2022/11/24 11:13:52;;;;;;;3.50;1.47;;;14.00;1.00;;;;;;5010853;28;20370;-73
2022/11/24 11:16:37;;;;;;;3.93;1.50;;;13.60;1.00;;;;;;5008349;28;21145;-72
2022/11/24 11:19:05;;;;;;;5.83;2.00;;;13.70;1.00;;;;;;5000812;28;20516;-72
2022/11/24 11:21:35;;;;;;;4.00;1.60;;;13.80;1.00;;;;;;5011736;28;20456;-73
2022/11/24 11:24:04;;;;;;;7.33;2.07;;;13.70;1.00;;;;;;5001833;28;20449;-73
2022/11/24 11:26:33;;;;;;;7.57;1.93;;;13.70;1.00;;;;;;5004442;28;20433;-72
2022/11/24 11:29:02;;;;;;;5.23;1.63;;;13.60;1.00;;;;;;5010359;28;20493;-72
2022/11/24 11:31:28;;;;;;;8.10;1.80;;;13.40;1.00;;;;;;5007128;28;20457;-69
2022/11/24 11:34:17;;;;;;;4.97;1.83;;;13.20;1.00;;;;;;5008336;28;20442;-71
2022/11/24 11:36:46;;;;;;;7.33;1.83;;;13.00;1.00;;;;;;5010415;28;20413;-72
2022/11/24 11:39:22;;;;;;;10.73;1.90;;;12.90;1.00;;;;;;5006141;28;20532;-72
2022/11/24 11:41:54;;;;;;;4.70;1.70;;;12.70;1.00;;;;;;5013211;28;20597;-72
2022/11/24 11:44:30;;;;;;;14.10;2.30;;;12.60;1.00;;;;;;5012519;28;20514;-72
2022/11/24 11:46:58;;;;;;;8.33;2.13;;;12.70;1.00;;;;;;5019840;28;20451;-72
2022/11/24 11:49:23;;;;;;;3.67;1.80;;;12.60;1.00;;;;;;5013020;28;21013;-72
2022/11/24 11:52:26;;;;;;;4.10;1.87;;;12.30;1.00;;;;;;5006462;28;20548;-72
2022/11/24 11:55:01;;;;;;;8.33;2.30;;;13.00;1.00;;;;;;5003936;28;20281;-72
2022/11/24 11:58:05;;;;;;;6.73;2.27;;;16.60;1.00;;;;;;4997093;28;20414;-73
2022/11/24 12:00:35;;;;;;;7.10;3.20;;;19.50;1.00;;;;;;4983452;28;20469;-73
2022/11/24 12:03:23;;;;;;;7.50;3.03;;;21.30;1.00;;;;;;5007250;28;20519;-72
2022/11/24 12:06:26;;;;;;;7.50;2.43;;;19.10;1.00;;;;;;5010768;28;20470;-72
2022/11/24 12:09:06;;;;;;;8.00;2.60;;;16.90;1.00;;;;;;5008026;28;20441;-70
2022/11/24 12:11:59;;;;;;;16.60;2.70;;;16.00;1.00;;;;;;5010093;28;20433;-72
2022/11/24 12:14:40;;;;;;;9.97;2.87;;;15.40;1.00;;;;;;5008549;28;20429;-72
2022/11/24 12:17:31;;;;;;;5.70;2.40;;;14.90;1.00;;;;;;5012882;28;20948;-70
2022/11/24 12:20:16;;;;;;;5.00;2.30;;;14.60;1.00;;;;;;5005326;28;20460;-72
2022/11/24 12:23:08;;;;;;;7.67;2.10;;;14.20;1.00;;;;;;5005317;28;20442;-72
2022/11/24 12:25:39;;;;;;;9.93;2.93;;;14.10;1.00;;;;;;4998313;28;20469;-72
2022/11/24 12:28:23;;;;;;;9.47;3.17;;;14.20;1.00;;;;;;5004497;28;20445;-72
2022/11/24 12:31:11;;;;;;;7.73;4.03;;;14.50;1.00;;;;;;5007809;28;20480;-71
2022/11/24 12:34:09;;;;;;;8.93;3.00;;;14.40;1.00;;;;;;5006708;28;20444;-72
2022/11/24 12:37:06;;;;;;;7.67;2.40;;;14.20;1.00;;;;;;4952952;28;20438;-72
2022/11/24 12:39:48;;;;;;;6.03;2.77;;;13.80;1.00;;;;;;4998554;28;20889;-72
2022/11/24 12:42:55;;;;;;;5.40;2.20;;;13.60;1.00;;;;;;5002422;28;20421;-71
2022/11/24 12:46:02;;;;;;;8.87;2.83;;;13.30;1.00;;;;;;5000492;28;20999;-72
2022/11/24 12:48:43;;;;;;;8.70;2.53;;;13.20;1.00;;;;;;5000656;28;20444;-72
2022/11/24 12:51:18;;;;;;;10.37;2.50;;;13.10;1.00;;;;;;5009633;28;20450;-71
2022/11/24 12:53:49;;;;;;;6.80;3.27;;;12.90;1.00;;;;;;5009825;28;20472;-71
2022/11/24 12:56:19;;;;;;;6.93;2.80;;;12.80;1.00;;;;;;5014470;28;20429;-71
2022/11/24 12:58:56;;;;;;;10.03;2.80;;;12.80;1.00;;;;;;5005491;28;20609;-72
2022/11/24 13:01:54;;;;;;;7.83;2.27;;;12.90;1.00;;;;;;5001816;28;20485;-72
2022/11/24 13:04:39;;;;;;;11.47;4.20;;;12.90;1.00;;;;;;4996159;28;20989;-71
2022/11/24 13:07:16;;;;;;;7.70;2.90;;;12.80;1.00;;;;;;5004221;28;20429;-71
2022/11/24 13:10:20;;;;;;;6.30;1.93;;;13.00;1.00;;;;;;5013836;28;20431;-72